Time;durP1;ratioP1;P1;durP2;ratioP2;P2;SDS_P1;SDS_P2;PMS_P1;PMS_P2;Temp;Humidity;BMP_temperature;BMP_pressure;BME280_temperature;BME280_humidity;BME280_pressure;Samples;Min_cycle;Max_cycle;Signal;HPM_P1;HPM_P2
2021/03/21 00:02:19;;;;;;;6.57;5.80;;;;;;;10.04;100.00;102898.36;1860799;74;934465;-75
2021/03/21 00:04:49;;;;;;;7.33;6.57;;;;;;;10.03;100.00;102893.88;1872900;75;934896;-75
2021/03/21 00:07:20;;;;;;;7.60;6.42;;;;;;;10.00;100.00;102895.74;1860599;75;936803;-75
2021/03/21 00:09:50;;;;;;;7.67;6.50;;;;;;;9.98;100.00;102897.89;1872749;75;934789;-75
2021/03/21 00:12:19;;;;;;;7.53;6.40;;;;;;;10.03;100.00;102894.42;1860642;73;934902;-75
2021/03/21 00:14:49;;;;;;;7.53;6.80;;;;;;;9.93;100.00;102884.38;1872967;75;934568;-74
2021/03/21 00:17:19;;;;;;;7.87;6.40;;;;;;;9.95;100.00;102884.48;1860717;75;934386;-75
2021/03/21 00:19:49;;;;;;;7.90;6.27;;;;;;;9.97;100.00;102889.78;1872830;74;932592;-75
2021/03/21 00:22:19;;;;;;;8.27;7.17;;;;;;;9.89;100.00;102885.39;1860604;75;934503;-75
2021/03/21 00:24:49;;;;;;;7.23;6.53;;;;;;;9.93;100.00;102880.22;1872884;74;932604;-74
2021/03/21 00:27:19;;;;;;;7.17;6.27;;;;;;;9.90;100.00;102876.53;1860876;75;934541;-74
2021/03/21 00:29:49;;;;;;;7.00;6.30;;;;;;;9.85;100.00;102880.53;1872999;75;932690;-74
2021/03/21 00:32:18;;;;;;;7.75;6.37;;;;;;;9.85;100.00;102870.28;1860676;75;934607;-75
2021/03/21 00:34:48;;;;;;;7.10;6.40;;;;;;;9.79;100.00;102881.47;1872940;75;934676;-74
2021/03/21 00:37:18;;;;;;;6.90;6.25;;;;;;;9.81;100.00;102874.59;1860803;75;934514;-74
2021/03/21 00:39:48;;;;;;;7.17;6.47;;;;;;;9.85;100.00;102870.81;1872947;74;934430;-75
2021/03/21 00:42:18;;;;;;;7.37;6.57;;;;;;;9.82;100.00;102869.90;1860685;75;934524;-75
2021/03/21 00:44:48;;;;;;;7.57;6.27;;;;;;;9.79;100.00;102862.04;1872909;75;934767;-75
2021/03/21 00:47:18;;;;;;;8.48;7.50;;;;;;;9.81;100.00;102865.41;1860759;75;934730;-75
2021/03/21 00:49:48;;;;;;;8.97;6.97;;;;;;;9.81;100.00;102859.33;1872828;75;934425;-74
2021/03/21 00:52:17;;;;;;;6.67;6.00;;;;;;;9.80;100.00;102852.08;1860530;75;934784;-75
2021/03/21 00:54:47;;;;;;;6.70;6.10;;;;;;;9.81;100.00;102852.39;1872970;75;934372;-75
2021/03/21 00:57:17;;;;;;;7.60;6.90;;;;;;;9.79;100.00;102851.79;1860729;75;934900;-75
2021/03/21 00:59:48;;;;;;;6.53;5.93;;;;;;;9.71;100.00;102847.94;1872946;75;934433;-75
2021/03/21 01:02:18;;;;;;;7.55;6.60;;;;;;;9.81;100.00;102852.39;1860505;75;935005;-74
2021/03/21 01:04:49;;;;;;;6.80;6.10;;;;;;;9.79;100.00;102845.39;1872810;75;934419;-75
2021/03/21 01:07:19;;;;;;;7.08;6.42;;;;;;;9.77;100.00;102853.08;1860781;75;934385;-75
2021/03/21 01:09:49;;;;;;;7.17;6.47;;;;;;;9.78;100.00;102850.09;1872974;74;932605;-74
2021/03/21 01:12:19;;;;;;;7.65;6.85;;;;;;;9.79;100.00;102841.22;1860659;74;934752;-75
2021/03/21 01:14:49;;;;;;;6.83;6.23;;;;;;;9.79;100.00;102844.85;1872825;73;932481;-75
2021/03/21 01:17:18;;;;;;;7.20;6.50;;;;;;;9.76;100.00;102846.67;1860696;74;934558;-74
2021/03/21 01:19:51;;;;;;;7.67;6.90;;;;;;;9.78;100.00;102850.63;1872865;75;932533;-75
2021/03/21 01:22:21;;;;;;;8.43;7.62;;;;;;;9.76;100.00;102855.01;1860682;75;934782;-75
2021/03/21 01:24:51;;;;;;;8.23;7.53;;;;;;;9.76;100.00;102849.45;1872800;75;932599;-74
2021/03/21 01:27:21;;;;;;;8.65;7.75;;;;;;;9.76;100.00;102848.61;1860638;75;934535;-74
2021/03/21 01:29:51;;;;;;;7.70;6.90;;;;;;;9.71;100.00;102849.33;1873109;75;932600;-74
2021/03/21 01:32:21;;;;;;;7.73;7.03;;;;;;;9.70;100.00;102857.34;1860779;74;934450;-74
2021/03/21 01:34:51;;;;;;;7.97;7.07;;;;;;;9.70;100.00;102849.02;1872810;75;932613;-75
2021/03/21 01:37:20;;;;;;;7.75;7.15;;;;;;;9.70;100.00;102860.11;1860496;75;934597;-75
2021/03/21 01:39:50;;;;;;;8.33;7.47;;;;;;;9.67;100.00;102851.41;1873002;75;932764;-75
2021/03/21 01:42:20;;;;;;;8.45;7.70;;;;;;;9.69;100.00;102848.69;1860683;75;934449;-74
2021/03/21 01:44:54;;;;;;;7.37;6.70;;;;;;;9.71;100.00;102842.92;1872825;75;932507;-74
2021/03/21 01:47:35;;;;;;;7.57;6.83;;;;;;;9.69;100.00;102842.30;1860788;75;934699;-75
2021/03/21 01:50:11;;;;;;;7.10;6.50;;;;;;;9.63;100.00;102831.56;1860813;75;934601;-74
2021/03/21 01:52:42;;;;;;;7.30;6.60;;;;;;;9.59;100.00;102835.88;1870345;75;934493;-75
2021/03/21 01:55:15;;;;;;;6.87;6.28;;;;;;;9.65;100.00;102834.13;1860711;75;944144;-74
2021/03/21 01:57:46;;;;;;;7.10;6.47;;;;;;;9.62;100.00;102832.67;1873001;75;934345;-75
2021/03/21 02:00:17;;;;;;;6.47;5.97;;;;;;;9.55;100.00;102847.13;1860710;75;934273;-75
2021/03/21 02:02:47;;;;;;;6.37;5.83;;;;;;;9.55;100.00;102835.50;1872926;75;934601;-74
2021/03/21 02:05:17;;;;;;;5.35;4.85;;;;;;;9.55;100.00;102844.36;1860798;75;934451;-75
2021/03/21 02:07:58;;;;;;;4.37;3.97;;;;;;;9.56;100.00;102841.36;1872904;75;934446;-75
2021/03/21 02:10:31;;;;;;;3.20;2.90;;;;;;;9.49;100.00;102831.42;1860612;75;934561;-74
2021/03/21 02:13:05;;;;;;;3.53;2.67;;;;;;;9.50;100.00;102833.09;1872716;75;932495;-75
2021/03/21 02:15:37;;;;;;;3.10;2.80;;;;;;;9.52;100.00;102835.97;1872829;73;934581;-74
2021/03/21 02:18:11;;;;;;;3.33;3.03;;;;;;;9.47;100.00;102837.19;1860436;75;934551;-75
2021/03/21 02:20:52;;;;;;;3.40;2.90;;;;;;;9.48;100.00;102837.51;1872301;75;934382;-74
2021/03/21 02:23:31;;;;;;;3.45;2.77;;;;;;;9.42;100.00;102838.95;1860505;75;934532;-75
2021/03/21 02:26:26;;;;;;;3.55;2.35;;;;;;;9.46;100.00;102834.09;1869165;75;932629;-75
2021/03/21 02:29:27;;;;;;;2.60;2.40;;;;;;;9.46;100.00;102831.86;1872796;74;932615;-75
2021/03/21 02:32:00;;;;;;;4.40;2.43;;;;;;;9.45;100.00;102833.81;1854898;75;932736;-74
2021/03/21 02:34:35;;;;;;;2.80;2.50;;;;;;;9.47;100.00;102828.87;1872895;75;934431;-75
2021/03/21 02:37:09;;;;;;;3.20;2.27;;;;;;;9.44;100.00;102825.17;1860694;75;934541;-75
2021/03/21 02:39:42;;;;;;;2.80;2.47;;;;;;;9.42;100.00;102827.85;1872833;75;934470;-75
2021/03/21 02:42:15;;;;;;;3.10;2.80;;;;;;;9.37;100.00;102824.38;1860329;75;940289;-75
2021/03/21 02:44:49;;;;;;;3.40;2.50;;;;;;;9.39;100.00;102823.63;1872906;75;934337;-74
2021/03/21 02:47:23;;;;;;;3.07;2.20;;;;;;;9.36;100.00;102816.30;1860671;75;934347;-75
2021/03/21 02:49:55;;;;;;;2.77;2.57;;;;;;;9.29;100.00;102816.89;1872986;75;932796;-75
2021/03/21 02:52:29;;;;;;;2.57;2.23;;;;;;;9.29;100.00;102812.73;1860699;75;934502;-74
2021/03/21 02:55:02;;;;;;;3.40;2.97;;;;;;;9.27;100.00;102810.74;1872983;75;932581;-74
2021/03/21 02:57:36;;;;;;;2.87;2.57;;;;;;;9.27;100.00;102810.74;1872887;75;934370;-75
2021/03/21 03:00:09;;;;;;;4.00;2.83;;;;;;;9.27;100.00;102808.82;1860716;75;934375;-75
2021/03/21 03:02:42;;;;;;;2.90;2.60;;;;;;;9.24;100.00;102812.59;1872747;75;934684;-75
2021/03/21 03:05:15;;;;;;;3.08;2.45;;;;;;;9.16;100.00;102810.94;1860435;75;934631;-75
2021/03/21 03:07:49;;;;;;;3.47;2.40;;;;;;;9.21;100.00;102818.04;1872657;75;934443;-75
2021/03/21 03:10:21;;;;;;;3.52;2.17;;;;;;;9.17;100.00;102824.27;1860723;75;934499;-74
2021/03/21 03:12:55;;;;;;;3.87;2.37;;;;;;;9.21;100.00;102823.59;1872294;74;932490;-75
2021/03/21 03:15:24;;;;;;;4.67;2.53;;;;;;;9.16;100.00;102819.83;1860723;75;934395;-75
2021/03/21 03:17:57;;;;;;;2.43;1.83;;;;;;;9.19;100.00;102818.83;1872816;73;932557;-75
2021/03/21 03:20:32;;;;;;;2.17;1.97;;;;;;;9.19;100.00;102818.83;1860597;75;934913;-75
2021/03/21 03:23:05;;;;;;;2.57;1.83;;;;;;;9.12;100.00;102809.70;1873006;75;932595;-75
2021/03/21 03:25:40;;;;;;;3.27;2.37;;;;;;;9.22;100.00;102812.81;1873106;75;934405;-74
2021/03/21 03:28:13;;;;;;;3.00;2.40;;;;;;;9.11;100.00;102823.28;1860648;75;934393;-75
2021/03/21 03:31:08;;;;;;;2.37;1.83;;;;;;;9.08;100.00;102821.79;1831287;76;932426;-75
2021/03/21 03:33:36;;;;;;;3.67;2.00;;;;;;;9.06;100.00;102822.57;1797426;77;934478;-74
2021/03/21 03:36:09;;;;;;;4.47;2.00;;;;;;;9.09;100.00;102812.41;1819710;77;934718;-75
2021/03/21 03:38:40;;;;;;;3.17;2.23;;;;;;;9.07;100.00;102820.08;1797656;77;934551;-74
2021/03/21 03:41:14;;;;;;;5.27;2.50;;;;;;;9.07;100.00;102820.08;1819906;76;934482;-75
2021/03/21 03:43:49;;;;;;;3.97;2.50;;;;;;;9.01;100.00;102819.63;1797643;79;934473;-75
2021/03/21 03:46:23;;;;;;;3.08;2.15;;;;;;;8.92;100.00;102822.36;1820049;76;934784;-75
2021/03/21 03:48:57;;;;;;;3.73;2.40;;;;;;;8.88;100.00;102822.51;1797621;79;932661;-74
2021/03/21 03:51:33;;;;;;;2.30;1.87;;;;;;;8.85;100.00;102822.97;1819714;76;934513;-75
2021/03/21 03:54:11;;;;;;;3.10;2.23;;;;;;;8.77;100.00;102823.78;1797608;78;932637;-74
2021/03/21 03:56:46;;;;;;;2.90;2.10;;;;;;;8.54;100.00;102825.75;1831710;76;934517;-75
2021/03/21 03:59:26;;;;;;;3.17;2.37;;;;;;;8.60;100.00;102827.08;1819893;77;934523;-75
2021/03/21 04:01:59;;;;;;;2.90;2.63;;;;;;;8.68;100.00;102825.98;1802287;77;932747;-75
2021/03/21 04:04:34;;;;;;;2.07;1.87;;;;;;;8.62;100.00;102822.71;1861016;76;934765;-75
2021/03/21 04:07:10;;;;;;;2.50;2.20;;;;;;;8.67;100.00;102817.34;1849553;75;934532;-75
2021/03/21 04:09:44;;;;;;;2.53;2.10;;;;;;;8.33;100.00;102821.42;1861830;75;934395;-75
2021/03/21 04:12:17;;;;;;;3.50;1.93;;;;;;;8.35;100.00;102822.03;1860268;75;934359;-75
2021/03/21 04:14:50;;;;;;;3.20;2.27;;;;;;;8.27;100.00;102823.64;1872869;74;934456;-75
2021/03/21 04:17:23;;;;;;;2.95;2.05;;;;;;;7.98;100.00;102820.94;1860760;75;934684;-75
2021/03/21 04:19:57;;;;;;;6.33;2.70;;;;;;;7.83;100.00;102827.26;1872671;73;932937;-75
2021/03/21 04:22:29;;;;;;;4.77;2.50;;;;;;;8.08;100.00;102826.00;1860640;74;934498;-75
2021/03/21 04:25:02;;;;;;;2.93;2.20;;;;;;;7.91;100.00;102827.58;1872944;75;932567;-75
2021/03/21 04:27:35;;;;;;;2.40;2.08;;;;;;;7.84;100.00;102832.27;1872456;74;934490;-75
2021/03/21 04:30:09;;;;;;;4.27;2.20;;;;;;;7.91;100.00;102833.11;1860394;75;934728;-75
2021/03/21 04:32:42;;;;;;;4.77;2.40;;;;;;;8.00;100.00;102829.84;1872896;75;934722;-75
2021/03/21 04:35:15;;;;;;;2.47;2.27;;;;;;;8.09;100.00;102828.53;1860561;75;934300;-75
2021/03/21 04:37:47;;;;;;;3.93;2.00;;;;;;;7.94;100.00;102830.75;1872723;75;934386;-75
2021/03/21 04:40:19;;;;;;;2.93;2.53;;;;;;;7.59;100.00;102834.91;1860692;75;934413;-75
2021/03/21 04:42:52;;;;;;;4.73;2.53;;;;;;;7.61;100.00;102843.33;1872891;75;932763;-75
2021/03/21 04:45:25;;;;;;;4.10;2.20;;;;;;;7.57;100.00;102835.11;1860730;75;934444;-75
2021/03/21 04:47:59;;;;;;;3.08;2.30;;;;;;;7.71;100.00;102843.70;1872957;75;932475;-75
2021/03/21 04:50:30;;;;;;;4.80;2.30;;;;;;;7.55;100.00;102851.62;1872949;75;934473;-75
2021/03/21 04:53:04;;;;;;;2.58;2.35;;;;;;;7.44;100.00;102858.68;1872649;75;932568;-75
2021/03/21 04:55:38;;;;;;;3.10;2.40;;;;;;;7.45;100.00;102858.97;1872833;75;934692;-75
2021/03/21 04:58:12;;;;;;;2.58;2.37;;;;;;;7.56;100.00;102860.23;1860472;75;934487;-74
2021/03/21 05:00:45;;;;;;;2.63;2.30;;;;;;;7.65;100.00;102857.56;1794953;77;934514;-75
2021/03/21 05:03:18;;;;;;;4.40;2.27;;;;;;;7.65;100.00;102859.80;1848605;76;933259;-75
2021/03/21 05:05:52;;;;;;;2.53;2.30;;;;;;;7.74;100.00;102856.27;1859730;76;934327;-75
2021/03/21 05:08:26;;;;;;;4.27;2.70;;;;;;;7.86;100.00;102860.05;1848566;76;934532;-75
2021/03/21 05:10:59;;;;;;;6.70;3.10;;;;;;;8.01;100.00;102859.76;1860965;76;932759;-74
2021/03/21 05:13:32;;;;;;;3.87;3.10;;;;;;;8.25;100.00;102854.88;1860944;76;934355;-74
2021/03/21 05:16:05;;;;;;;3.67;3.10;;;;;;;8.42;100.00;102850.55;1861053;76;932607;-75
2021/03/21 05:18:37;;;;;;;4.47;2.80;;;;;;;8.43;100.00;102858.33;1861062;76;934506;-75
2021/03/21 05:21:12;;;;;;;3.10;2.63;;;;;;;8.41;100.00;102860.45;1848822;73;934398;-75
2021/03/21 05:23:49;;;;;;;3.20;2.90;;;;;;;8.55;100.00;102857.93;1861048;76;934505;-75
2021/03/21 05:26:23;;;;;;;4.00;2.90;;;;;;;8.46;100.00;102848.18;1847296;76;934466;-75
2021/03/21 05:29:02;;;;;;;3.17;2.90;;;;;;;8.43;100.00;102847.25;1861083;76;932402;-75
2021/03/21 05:31:32;;;;;;;3.40;3.10;;;;;;;8.30;100.00;102845.38;1860956;76;934394;-75
2021/03/21 05:34:02;;;;;;;3.47;2.80;;;;;;;8.42;100.00;102851.08;1861050;76;932944;-75
2021/03/21 05:36:41;;;;;;;5.37;3.03;;;;;;;8.42;100.00;102852.47;1860970;76;934577;-75
2021/03/21 05:39:15;;;;;;;3.50;3.20;;;;;;;8.37;100.00;102851.75;1848813;76;934639;-74
2021/03/21 05:42:11;;;;;;;3.50;3.03;;;;;;;8.38;100.00;102857.61;1860229;76;934470;-75
2021/03/21 05:45:20;;;;;;;4.10;3.10;;;;;;;8.39;100.00;102860.67;1859503;76;934466;-75
2021/03/21 05:48:23;;;;;;;4.47;2.67;;;;;;;8.19;100.00;102859.37;1861088;76;932454;-75
2021/03/21 05:51:16;;;;;;;3.20;2.50;;;;;;;8.08;100.00;102868.38;1860590;76;932818;-74
2021/03/21 05:54:39;;;;;;;3.70;3.30;;;;;;;8.01;100.00;102879.13;1860985;76;934431;-74
2021/03/21 05:57:34;;;;;;;8.47;3.73;;;;;;;8.19;100.00;102882.90;1848768;76;934470;-74
2021/03/21 06:00:21;;;;;;;3.50;3.20;;;;;;;8.42;100.00;102878.78;1798330;78;934520;-75
2021/03/21 06:03:10;;;;;;;3.63;3.30;;;;;;;8.43;100.00;102881.88;1860915;75;932558;-75
2021/03/21 06:06:14;;;;;;;3.73;3.37;;;;;;;8.53;100.00;102888.61;1860993;76;934382;-75
2021/03/21 06:09:01;;;;;;;3.77;3.27;;;;;;;8.51;100.00;102889.39;1861111;76;934445;-75
2021/03/21 06:11:42;;;;;;;4.83;3.50;;;;;;;8.57;100.00;102894.55;1861019;76;934377;-75
2021/03/21 06:14:38;;;;;;;4.60;3.80;;;;;;;8.52;100.00;102897.13;1848610;76;934435;-75
2021/03/21 06:17:22;;;;;;;5.35;3.67;;;;;;;8.55;100.00;102903.64;1848794;76;934352;-75
2021/03/21 06:20:11;;;;;;;4.43;3.87;;;;;;;8.53;100.00;102902.99;1859666;76;932565;-75
2021/03/21 06:22:55;;;;;;;5.47;3.63;;;;;;;8.68;100.00;102909.09;1859054;73;934631;-75
2021/03/21 06:25:49;;;;;;;5.13;3.97;;;;;;;8.65;100.00;102909.52;1847858;76;934728;-74
2021/03/21 06:28:38;;;;;;;4.25;3.50;;;;;;;8.68;100.00;102902.17;1848870;76;934445;-74
2021/03/21 06:31:45;;;;;;;5.25;4.03;;;;;;;8.68;100.00;102902.17;1847254;76;934432;-76
2021/03/21 06:34:22;;;;;;;6.33;3.75;;;;;;;8.63;100.00;102903.38;1825414;77;934636;-74
2021/03/21 06:36:58;;;;;;;5.03;4.30;;;;;;;8.71;100.00;102905.88;1861010;76;932526;-74
2021/03/21 06:40:00;;;;;;;5.70;4.07;;;;;;;8.73;100.00;102906.48;1861013;76;934390;-74
2021/03/21 06:42:45;;;;;;;6.87;4.40;;;;;;;8.61;100.00;102906.89;1861071;76;934515;-74
2021/03/21 06:45:59;;;;;;;6.00;5.08;;;;;;;8.77;100.00;102909.69;1848594;76;934454;-73
2021/03/21 06:49:11;;;;;;;13.93;5.57;;;;;;;8.76;100.00;102906.06;1861030;76;934395;-74
2021/03/21 06:51:55;;;;;;;5.67;4.67;;;;;;;8.93;100.00;102915.53;1860612;76;936679;-74
2021/03/21 06:54:31;;;;;;;4.93;4.37;;;;;;;8.92;100.00;102919.91;1848875;76;934624;-74
2021/03/21 06:57:26;;;;;;;5.00;4.50;;;;;;;8.91;100.00;102914.89;1860701;76;932661;-74
2021/03/21 07:00:14;;;;;;;7.30;4.73;;;;;;;8.95;100.00;102918.92;1852799;75;932593;-74
2021/03/21 07:03:04;;;;;;;5.93;3.87;;;;;;;8.87;100.00;102924.73;1860236;76;934766;-74
2021/03/21 07:05:54;;;;;;;5.60;4.47;;;;;;;8.97;100.00;102929.80;1859191;76;934524;-74
2021/03/21 07:08:42;;;;;;;7.43;4.83;;;;;;;8.96;100.00;102925.31;1846993;76;934416;-74
2021/03/21 07:11:48;;;;;;;6.05;4.53;;;;;;;8.95;100.00;102927.77;1845874;76;934536;-74
2021/03/21 07:14:42;;;;;;;5.67;5.17;;;;;;;8.99;100.00;102934.56;1846183;76;934445;-74
2021/03/21 07:17:41;;;;;;;7.87;4.83;;;;;;;9.08;100.00;102935.45;1828192;76;934452;-74
2021/03/21 07:20:38;;;;;;;6.42;4.90;;;;;;;9.01;100.00;102942.98;1848049;76;934561;-73
2021/03/21 07:23:38;;;;;;;6.97;4.87;;;;;;;9.06;100.00;102944.55;1848611;73;934363;-75
2021/03/21 07:26:47;;;;;;;5.63;4.43;;;;;;;9.03;100.00;102946.36;1847614;76;934368;-76
2021/03/21 07:29:27;;;;;;;6.80;4.65;;;;;;;9.12;100.00;102952.48;1807017;77;934536;-75
2021/03/21 07:32:12;;;;;;;6.90;4.63;;;;;;;9.12;100.00;102951.10;1860790;76;932499;-75
2021/03/21 07:35:07;;;;;;;6.57;5.27;;;;;;;9.11;100.00;102954.97;1860541;76;934562;-75
2021/03/21 07:37:42;;;;;;;8.03;4.50;;;;;;;9.16;100.00;102956.51;1860967;76;934416;-75
2021/03/21 07:40:25;;;;;;;6.92;4.58;;;;;;;9.21;100.00;102955.30;1848868;76;934503;-75
2021/03/21 07:43:25;;;;;;;7.83;4.40;;;;;;;9.38;100.00;102960.61;1860935;76;932558;-75
2021/03/21 07:46:11;;;;;;;6.03;4.27;;;;;;;9.48;100.00;102955.41;1821310;76;933034;-76
2021/03/21 07:49:08;;;;;;;6.80;4.30;;;;;;;9.42;100.00;102956.84;1860551;76;934485;-75
2021/03/21 07:51:47;;;;;;;13.87;4.77;;;;;;;9.42;100.00;102957.69;1860653;76;934436;-75
2021/03/21 07:54:22;;;;;;;7.87;4.33;;;;;;;9.43;100.00;102954.38;1848487;76;936505;-75
2021/03/21 07:56:55;;;;;;;8.23;4.23;;;;;;;9.41;100.00;102946.84;1861159;76;932736;-75
2021/03/21 07:59:28;;;;;;;6.30;3.97;;;;;;;9.52;100.00;102958.58;1848990;76;934352;-76
2021/03/21 08:01:58;;;;;;;7.50;4.00;;;;;;;9.53;100.00;102954.73;1860972;76;932578;-75
2021/03/21 08:04:32;;;;;;;5.90;4.33;;;;;;;9.58;100.00;102956.30;1847274;76;1048198;-75
2021/03/21 08:07:05;;;;;;;7.27;3.77;;;;;;;9.60;100.00;102953.59;1860975;76;934666;-76
2021/03/21 08:09:37;;;;;;;6.93;3.57;;;;;;;9.59;100.00;102952.42;1859650;76;934406;-76
2021/03/21 08:12:13;;;;;;;8.87;3.77;;;;;;;9.60;100.00;102954.98;1848962;76;934827;-76
2021/03/21 08:14:46;;;;;;;6.35;3.10;;;;;;;9.68;100.00;102951.06;1858993;76;935017;-75
2021/03/21 08:17:20;;;;;;;7.97;3.65;;;;;;;9.72;100.00;102952.83;1849026;76;934661;-76
2021/03/21 08:19:53;;;;;;;5.60;3.33;;;;;;;9.83;100.00;102951.56;1861056;76;932646;-75
2021/03/21 08:22:26;;;;;;;4.40;2.87;;;;;;;9.91;100.00;102947.63;1849027;76;934624;-75
2021/03/21 08:25:00;;;;;;;4.30;2.70;;;;;;;9.84;100.00;102947.69;1860929;73;932768;-75
2021/03/21 08:27:33;;;;;;;5.37;2.70;;;;;;;9.97;100.00;102941.14;1861032;76;934427;-82
2021/03/21 08:30:05;;;;;;;6.17;2.20;;;;;;;10.07;100.00;102953.97;1861161;76;932540;-75
2021/03/21 08:32:37;;;;;;;8.07;2.93;;;;;;;9.99;100.00;102952.34;1860967;76;936807;-75
2021/03/21 08:35:29;;;;;;;5.10;3.03;;;;;;;10.04;100.00;102951.13;1846213;76;934543;-75
2021/03/21 08:38:01;;;;;;;7.33;3.53;;;;;;;10.05;100.00;102948.63;1860897;76;934711;-75
2021/03/21 08:40:34;;;;;;;4.33;2.63;;;;;;;10.13;100.00;102955.83;1861053;76;936694;-75
2021/03/21 08:43:21;;;;;;;3.80;3.00;;;;;;;10.06;100.00;102951.72;1848875;76;936611;-76
2021/03/21 08:45:55;;;;;;;7.57;3.37;;;;;;;10.15;100.00;102951.41;1860981;76;934626;-75
2021/03/21 08:48:30;;;;;;;10.57;4.00;;;;;;;10.32;100.00;102958.08;1846128;76;936502;-74
2021/03/21 08:51:21;;;;;;;6.87;4.00;;;;;;;10.26;100.00;102956.25;1860977;76;936885;-76
2021/03/21 08:54:03;;;;;;;6.53;3.90;;;;;;;10.34;100.00;102947.06;1860430;76;934929;-76
2021/03/21 08:56:36;;;;;;;8.37;4.37;;;;;;;10.28;100.00;102947.98;1860849;76;936575;-75
2021/03/21 08:59:28;;;;;;;7.03;4.53;;;;;;;10.44;100.00;102952.89;1848706;76;936568;-75
2021/03/21 09:02:08;;;;;;;6.50;4.37;;;;;;;10.38;100.00;102950.22;1860970;76;934823;-75
2021/03/21 09:04:41;;;;;;;8.13;5.70;;;;;;;10.43;100.00;102949.84;1860896;76;936516;-74
2021/03/21 09:07:17;;;;;;;9.05;5.20;;;;;;;10.37;100.00;102944.34;1848785;76;936559;-74
2021/03/21 09:09:47;;;;;;;9.03;5.00;;;;;;;10.50;100.00;102949.73;1860838;76;936736;-74
2021/03/21 09:12:29;;;;;;;7.63;5.07;;;;;;;10.46;100.00;102952.14;1848662;76;936725;-74
2021/03/21 09:15:22;;;;;;;9.80;5.20;;;;;;;10.59;100.00;102941.39;1861031;76;934557;-74
2021/03/21 09:18:09;;;;;;;8.63;4.60;;;;;;;10.76;100.00;102939.66;1860984;76;934677;-74
2021/03/21 09:20:41;;;;;;;7.83;4.50;;;;;;;10.72;100.00;102945.37;1860934;76;936509;-74
2021/03/21 09:23:34;;;;;;;7.30;4.17;;;;;;;10.89;100.00;102946.41;1848667;76;936653;-74
2021/03/21 09:26:07;;;;;;;10.70;4.47;;;;;;;11.08;100.00;102946.36;1848657;73;936471;-76
2021/03/21 09:28:39;;;;;;;10.83;4.67;;;;;;;11.07;100.00;102946.90;1862102;75;938613;-75
2021/03/21 09:31:12;;;;;;;7.33;4.10;;;;;;;11.19;100.00;102947.77;1848717;76;938504;-77
2021/03/21 09:33:46;;;;;;;7.80;4.57;;;;;;;11.13;100.00;102949.25;1860830;76;936487;-76
2021/03/21 09:36:19;;;;;;;8.03;4.15;;;;;;;11.07;100.00;102943.27;1848539;76;936519;-76
2021/03/21 09:38:53;;;;;;;9.27;3.77;;;;;;;11.10;100.00;102950.59;1861109;76;934732;-76
2021/03/21 09:41:24;;;;;;;10.17;4.40;;;;;;;11.28;100.00;102948.27;1848896;76;936636;-77
2021/03/21 09:43:57;;;;;;;9.77;4.83;;;;;;;11.36;100.00;102956.27;1860874;76;936728;-76
2021/03/21 09:46:30;;;;;;;7.20;4.00;;;;;;;11.37;100.00;102954.65;1848732;76;936513;-77
2021/03/21 09:49:08;;;;;;;11.10;4.63;;;;;;;11.39;100.00;102954.39;1859956;76;934789;-77
2021/03/21 09:51:45;;;;;;;9.53;4.27;;;;;;;11.06;100.00;102950.75;1860892;76;938560;-77
2021/03/21 09:54:25;;;;;;;10.70;3.80;;;;;;;10.94;100.00;102956.29;1848761;76;936544;-76
2021/03/21 09:56:58;;;;;;;10.80;3.57;;;;;;;11.13;100.00;102953.42;1860615;76;936699;-76
2021/03/21 09:59:37;;;;;;;8.58;2.90;;;;;;;11.16;100.00;102957.99;1846809;76;1043595;-76
2021/03/21 10:02:11;;;;;;;7.20;2.87;;;;;;;11.33;100.00;102953.98;1848237;76;938754;-75
2021/03/21 10:04:44;;;;;;;5.43;2.17;;;;;;;11.19;100.00;102954.73;1860923;76;936513;-76
2021/03/21 10:07:19;;;;;;;9.28;2.58;;;;;;;11.19;100.00;102952.48;1849017;76;936469;-75
2021/03/21 10:09:50;;;;;;;6.13;2.43;;;;;;;11.30;100.00;102955.28;1861063;76;936509;-76
2021/03/21 10:12:21;;;;;;;9.78;2.50;;;;;;;11.36;100.00;102957.66;1849005;76;936632;-76
2021/03/21 10:15:07;;;;;;;14.23;3.13;;;;;;;11.43;100.00;102962.02;1860929;76;934765;-76
2021/03/21 10:17:42;;;;;;;5.97;2.20;;;;;;;11.35;100.00;102968.48;1860885;76;938669;-76
2021/03/21 10:20:14;;;;;;;7.50;2.15;;;;;;;11.29;100.00;102971.70;1849017;76;936433;-76
2021/03/21 10:22:59;;;;;;;8.70;3.17;;;;;;;11.49;100.00;102978.31;1861040;76;936596;-76
2021/03/21 10:25:55;;;;;;;7.23;2.50;;;;;;;11.54;100.00;102983.17;1848763;76;936522;-77
2021/03/21 10:28:58;;;;;;;7.37;2.57;;;;;;;11.64;100.00;102985.64;1848724;73;936541;-77
2021/03/21 10:31:39;;;;;;;7.33;2.70;;;;;;;11.42;100.00;102988.15;1843902;76;936467;-77
2021/03/21 10:34:51;;;;;;;7.28;2.35;;;;;;;11.36;100.00;102987.73;1848547;76;936763;-77
2021/03/21 10:37:56;;;;;;;7.50;2.52;;;;;;;11.45;100.00;102988.77;1848844;76;936644;-77
2021/03/21 10:40:44;;;;;;;8.00;2.60;;;;;;;11.70;100.00;102994.98;1801092;76;936618;-76
2021/03/21 10:43:35;;;;;;;7.27;2.83;;;;;;;11.73;100.00;102990.34;1848802;76;936446;-76
2021/03/21 10:46:09;;;;;;;7.77;2.63;;;;;;;11.75;100.00;102993.21;1848815;76;936441;-75
2021/03/21 10:48:54;;;;;;;10.23;3.17;;;;;;;11.45;100.00;102989.63;1860907;76;936906;-75
2021/03/21 10:51:24;;;;;;;7.97;2.60;;;;;;;11.42;100.00;102991.50;1848708;76;938795;-75
2021/03/21 10:54:18;;;;;;;9.90;3.17;;;;;;;11.63;100.00;103003.46;1860863;76;934738;-75
2021/03/21 10:57:24;;;;;;;7.10;2.93;;;;;;;11.79;100.00;102995.81;1860257;76;936606;-76
2021/03/21 11:00:14;;;;;;;7.30;2.00;;;;;;;11.73;100.00;102991.20;1860975;76;934850;-76
2021/03/21 11:02:47;;;;;;;9.50;2.40;;;;;;;11.77;100.00;102989.63;1860872;75;937107;-75
2021/03/21 11:05:31;;;;;;;11.22;3.30;;;;;;;11.84;100.00;102985.34;1848872;76;936389;-75
2021/03/21 11:08:11;;;;;;;7.13;2.20;;;;;;;11.76;100.00;102987.95;1860951;76;936962;-75
2021/03/21 11:10:44;;;;;;;7.37;1.97;;;;;;;11.74;100.00;102981.77;1860349;76;936682;-76
2021/03/21 11:13:16;;;;;;;6.15;1.82;;;;;;;11.94;100.00;102977.21;1848919;76;936895;-75
2021/03/21 11:15:49;;;;;;;5.53;2.70;;;;;;;11.84;100.00;102977.84;1860874;76;936721;-75
2021/03/21 11:18:25;;;;;;;6.67;2.27;;;;;;;11.90;100.00;102969.04;1848859;76;936867;-76
2021/03/21 11:21:08;;;;;;;7.93;2.20;;;;;;;12.17;100.00;102969.39;1861002;76;934739;-76
2021/03/21 11:23:44;;;;;;;10.27;2.40;;;;;;;12.13;100.00;102960.68;1860810;76;936532;-76
2021/03/21 11:26:22;;;;;;;7.77;1.90;;;;;;;12.18;100.00;102964.12;1848862;76;938544;-75
2021/03/21 11:28:53;;;;;;;6.70;2.23;;;;;;;12.01;100.00;102962.64;1860865;73;934773;-76
2021/03/21 11:31:33;;;;;;;7.80;2.40;;;;;;;12.31;100.00;102952.17;1842140;75;936606;-75
2021/03/21 11:34:18;;;;;;;8.20;2.47;;;;;;;12.35;100.00;102959.50;1860924;76;934660;-76
2021/03/21 11:36:50;;;;;;;6.57;2.30;;;;;;;12.29;100.00;102950.16;1860826;76;936607;-76
2021/03/21 11:39:24;;;;;;;7.43;3.23;;;;;;;12.09;100.00;102952.52;1847510;76;936573;-76
2021/03/21 11:41:54;;;;;;;7.17;2.83;;;;;;;12.10;100.00;102952.83;1860901;76;934582;-78
2021/03/21 11:44:27;;;;;;;7.53;2.30;;;;;;;12.07;100.00;102951.04;1848675;76;936430;-76
2021/03/21 11:46:59;;;;;;;7.43;2.20;;;;;;;12.45;100.00;102948.55;1860994;76;934590;-76
2021/03/21 11:49:29;;;;;;;8.50;2.80;;;;;;;12.56;100.00;102936.52;1858580;76;936551;-76
2021/03/21 11:52:02;;;;;;;5.73;2.03;;;;;;;12.65;100.00;102935.04;1861083;76;934582;-76
2021/03/21 11:54:35;;;;;;;4.87;2.20;;;;;;;12.29;100.00;102945.14;1861105;76;936526;-76
2021/03/21 11:57:27;;;;;;;7.13;2.40;;;;;;;12.12;100.00;102937.23;1848795;76;936548;-76
2021/03/21 12:00:01;;;;;;;6.00;2.20;;;;;;;12.38;100.00;102935.30;1837586;76;934596;-76
2021/03/21 12:02:40;;;;;;;5.03;1.97;;;;;;;12.45;100.00;102934.60;1806538;78;936808;-76
2021/03/21 12:05:15;;;;;;;6.55;2.40;;;;;;;12.60;100.00;102941.91;1825538;76;936629;-76